KDSM/DSM METAR and TAF weather

Enter ICAO airport designator
Station Type Date Time Source
KDSM METAR 2019/02/23 02:21 UTC NOAA

KDSM 230221Z 07007KT 8SM OVC033 M01/M05 A3015 RMK AO2 FZRAE20 P0000 I1000 T10061050


Station Type Date Time Source
KDSM Decoded METAR 2019/02/23 02:21 UTC NOAA

DES MOINES INTERNATIONAL, IA, United States (KDSM) 41-32N 93-40W 295M
Feb 22, 2019 - 09:21 PM EST / 2019.02.23 0221 UTC
Wind: from the ENE (070 degrees) at 8 MPH (7 KT):0
Visibility: 8 mile(s):0
Sky conditions: overcast
Precipitation last hour: A trace
Temperature: 30.9 F (-0.6 C)
Windchill: 23 F (-5 C):1
Dew Point: 23.0 F (-5.0 C)
Relative Humidity: 72%
Pressure (altimeter): 30.15 in. Hg (1020 hPa)
ob: KDSM 230221Z 07007KT 8SM OVC033 M01/M05 A3015 RMK AO2 FZRAE20 P0000 I1000 T10061050
cycle: 2

Station Type Date Time Source
KDSM TAF 2019/02/23 02:45 UTC NOAA

TAF
AMD KDSM 230142Z 2302/2324 08006KT P6SM -FZRA OVC050
FM230300 11009KT 5SM -FZDZ OVC020
FM230600 10008G18KT 5SM FZRA OVC010
FM230900 10007KT 3SM -TSRA OVC008CB
FM231300 07007KT 5SM RA OVC003


Example: see airport list